Time;durP1;ratioP1;P1;durP2;ratioP2;P2;SDS_P1;SDS_P2;PMS_P1;PMS_P2;Temp;Humidity;BMP_temperature;BMP_pressure;BME280_temperature;BME280_humidity;BME280_pressure;Samples;Min_cycle;Max_cycle;Signal;HPM_P1;HPM_P2
2023/04/12 00:00:30;;;;;;;16.73;5.73;;;18.40;51.70;;;;;;5093325;28;20445;-83
2023/04/12 00:03:01;;;;;;;10.80;4.97;;;18.50;51.90;;;;;;5090807;28;20451;-82
2023/04/12 00:05:33;;;;;;;13.40;5.30;;;18.50;51.80;;;;;;5087803;28;20449;-83
2023/04/12 00:08:03;;;;;;;11.30;5.00;;;18.40;51.90;;;;;;5094092;28;20549;-82
2023/04/12 00:10:31;;;;;;;8.07;5.17;;;18.30;51.80;;;;;;5095270;28;20513;-82
2023/04/12 00:12:59;;;;;;;9.17;5.10;;;18.40;52.00;;;;;;5095736;28;20447;-82
2023/04/12 00:15:27;;;;;;;14.93;5.10;;;18.40;52.00;;;;;;5096279;28;20472;-81
2023/04/12 00:17:55;;;;;;;14.37;5.40;;;18.40;52.00;;;;;;5094228;28;20466;-82
2023/04/12 00:20:23;;;;;;;10.80;5.00;;;18.40;52.00;;;;;;5093260;28;20497;-82
2023/04/12 00:22:53;;;;;;;8.47;4.70;;;18.40;51.90;;;;;;5097085;28;20443;-83
2023/04/12 00:25:21;;;;;;;11.90;5.20;;;18.30;51.90;;;;;;5095640;28;20438;-82
2023/04/12 00:27:49;;;;;;;10.20;5.00;;;18.30;51.80;;;;;;5096330;28;20475;-82
2023/04/12 00:30:17;;;;;;;7.90;4.57;;;18.30;51.80;;;;;;5097090;28;20474;-82
2023/04/12 00:32:45;;;;;;;13.33;5.10;;;18.30;51.80;;;;;;5092030;28;20449;-82
2023/04/12 00:35:12;;;;;;;10.03;4.90;;;18.30;51.70;;;;;;5093886;28;20468;-81
2023/04/12 00:37:40;;;;;;;10.63;4.80;;;18.30;51.60;;;;;;5094206;28;20456;-83
2023/04/12 00:40:11;;;;;;;10.53;5.07;;;18.30;51.60;;;;;;5091747;28;20467;-79
2023/04/12 00:42:39;;;;;;;10.40;5.13;;;18.30;51.60;;;;;;5095228;28;20425;-82
2023/04/12 00:45:08;;;;;;;9.10;5.13;;;18.30;51.60;;;;;;5096950;28;20441;-82
2023/04/12 00:47:36;;;;;;;6.97;4.30;;;18.30;51.70;;;;;;5104768;28;20540;-82
2023/04/12 00:50:04;;;;;;;8.03;4.60;;;18.30;51.70;;;;;;5093175;28;20534;-81
2023/04/12 00:52:34;;;;;;;8.47;4.60;;;18.30;51.70;;;;;;5091376;28;20494;-81
2023/04/12 00:55:02;;;;;;;9.70;4.23;;;18.30;51.80;;;;;;5094225;28;20490;-81
2023/04/12 00:57:34;;;;;;;12.33;4.67;;;18.30;51.80;;;;;;5093229;28;20488;-81
2023/04/12 01:00:03;;;;;;;6.27;4.10;;;18.30;51.70;;;;;;5095988;28;20546;-82
2023/04/12 01:02:32;;;;;;;7.07;3.97;;;18.30;51.70;;;;;;5095665;28;20448;-82
2023/04/12 01:05:00;;;;;;;7.30;4.33;;;18.20;51.70;;;;;;5098386;28;20445;-83
2023/04/12 01:07:36;;;;;;;8.20;4.03;;;18.20;51.80;;;;;;5092062;28;20449;-82
2023/04/12 01:10:07;;;;;;;6.30;4.27;;;18.30;51.80;;;;;;5093818;28;20474;-82
2023/04/12 01:12:41;;;;;;;7.60;4.00;;;18.30;52.40;;;;;;5088509;28;20441;-81
2023/04/12 01:15:11;;;;;;;8.50;4.70;;;18.20;51.70;;;;;;5089884;28;20481;-83
2023/04/12 01:17:44;;;;;;;7.50;3.93;;;18.20;51.80;;;;;;5090169;28;20965;-81
2023/04/12 01:20:15;;;;;;;10.57;4.03;;;18.20;51.70;;;;;;5091583;28;20483;-83
2023/04/12 01:22:55;;;;;;;7.30;4.10;;;18.20;51.70;;;;;;5089876;28;20452;-82
2023/04/12 01:25:38;;;;;;;8.60;3.80;;;18.20;51.60;;;;;;5101419;28;20534;-81
2023/04/12 01:28:07;;;;;;;6.07;3.87;;;18.20;51.70;;;;;;5093503;28;20448;-82
2023/04/12 01:30:35;;;;;;;7.10;4.00;;;18.20;51.50;;;;;;5095202;28;20444;-82
2023/04/12 01:33:05;;;;;;;10.30;3.70;;;18.20;51.60;;;;;;5092312;28;20531;-82
2023/04/12 01:35:33;;;;;;;9.20;4.10;;;18.20;51.40;;;;;;5092040;28;20468;-82
2023/04/12 01:38:02;;;;;;;7.53;3.90;;;18.20;51.40;;;;;;5088167;28;20451;-81
2023/04/12 01:40:31;;;;;;;7.00;3.60;;;18.10;51.30;;;;;;5086370;28;20484;-81
2023/04/12 01:43:06;;;;;;;5.67;3.77;;;18.10;51.30;;;;;;5088891;28;20455;-82
2023/04/12 01:45:34;;;;;;;7.50;3.63;;;18.20;51.30;;;;;;5093526;28;20451;-82
2023/04/12 01:48:02;;;;;;;8.90;3.87;;;18.10;51.10;;;;;;5089250;28;20487;-81
2023/04/12 01:50:36;;;;;;;7.03;3.13;;;18.10;51.20;;;;;;5095580;28;20455;-81
2023/04/12 01:53:07;;;;;;;4.20;3.40;;;18.10;51.30;;;;;;5096361;28;20452;-81
2023/04/12 01:55:36;;;;;;;8.50;3.30;;;18.10;51.30;;;;;;5094573;28;20473;-81
2023/04/12 01:58:04;;;;;;;8.73;3.60;;;18.10;51.30;;;;;;5095999;28;20456;-82
2023/04/12 02:00:33;;;;;;;5.23;3.60;;;18.10;51.30;;;;;;5091765;28;20436;-82
2023/04/12 02:03:01;;;;;;;6.13;3.30;;;18.10;51.20;;;;;;5094245;28;20437;-82
2023/04/12 02:05:30;;;;;;;6.27;3.23;;;18.10;51.30;;;;;;5094319;28;20451;-82
2023/04/12 02:07:58;;;;;;;7.67;3.53;;;18.10;51.30;;;;;;5095385;28;20460;-82
2023/04/12 02:10:29;;;;;;;4.27;2.93;;;18.10;51.30;;;;;;5094212;28;20468;-81
2023/04/12 02:12:59;;;;;;;4.73;3.30;;;18.10;51.40;;;;;;5088779;28;20540;-82
2023/04/12 02:15:27;;;;;;;7.27;3.83;;;18.10;51.20;;;;;;5095843;28;20638;-83
2023/04/12 02:17:58;;;;;;;5.77;3.70;;;18.10;51.40;;;;;;5095772;28;20510;-82
2023/04/12 02:20:26;;;;;;;5.80;3.27;;;18.00;51.20;;;;;;5096594;28;20476;-81
2023/04/12 02:22:55;;;;;;;5.37;3.27;;;18.10;51.30;;;;;;5097091;28;20547;-81
2023/04/12 02:25:23;;;;;;;3.20;2.73;;;18.10;51.20;;;;;;5094751;28;20453;-82
2023/04/12 02:27:51;;;;;;;6.20;3.63;;;18.10;51.10;;;;;;5094530;28;20478;-82
2023/04/12 02:30:19;;;;;;;4.07;3.23;;;18.10;51.80;;;;;;5090196;28;20549;-82
2023/04/12 02:32:47;;;;;;;8.47;2.90;;;18.00;51.10;;;;;;5095857;28;20449;-82
2023/04/12 02:35:18;;;;;;;3.57;2.90;;;18.00;51.00;;;;;;5093997;28;20460;-82
2023/04/12 02:37:47;;;;;;;6.07;3.10;;;18.00;51.10;;;;;;5088492;28;20476;-82
2023/04/12 02:40:15;;;;;;;5.47;3.10;;;18.00;51.10;;;;;;5090522;28;20547;-83
2023/04/12 02:42:43;;;;;;;4.97;2.77;;;18.00;50.90;;;;;;5095529;28;20445;-82
2023/04/12 02:45:11;;;;;;;4.80;3.10;;;18.10;51.00;;;;;;5095006;28;20479;-82
2023/04/12 02:47:39;;;;;;;7.53;3.10;;;18.00;50.80;;;;;;5086660;28;20453;-82
2023/04/12 02:50:08;;;;;;;5.00;3.17;;;18.00;50.90;;;;;;5088921;28;20466;-81
2023/04/12 02:52:38;;;;;;;5.37;3.20;;;18.00;50.80;;;;;;5087955;28;20471;-82
2023/04/12 02:55:07;;;;;;;4.87;2.93;;;18.00;50.80;;;;;;5092670;28;20456;-82
2023/04/12 02:57:35;;;;;;;5.83;2.90;;;18.00;50.70;;;;;;5095194;28;20484;-82
2023/04/12 03:00:10;;;;;;;3.63;2.70;;;18.00;50.70;;;;;;5093685;28;20465;-81
2023/04/12 03:02:39;;;;;;;3.23;2.90;;;17.90;50.70;;;;;;5091150;28;20456;-82
2023/04/12 03:05:08;;;;;;;6.07;2.90;;;17.90;51.20;;;;;;5089675;28;20448;-82
2023/04/12 03:07:36;;;;;;;3.57;2.60;;;17.90;50.60;;;;;;5093466;28;20441;-81
2023/04/12 03:10:06;;;;;;;3.80;2.40;;;17.90;50.50;;;;;;5097986;28;20555;-82
2023/04/12 03:12:34;;;;;;;2.90;2.50;;;17.90;50.40;;;;;;5095591;28;20934;-82
2023/04/12 03:15:03;;;;;;;5.30;2.50;;;17.80;50.50;;;;;;5095723;28;20437;-82
2023/04/12 03:17:31;;;;;;;5.20;2.63;;;17.90;50.40;;;;;;5092413;28;20555;-82
2023/04/12 03:20:05;;;;;;;3.80;2.77;;;17.90;50.40;;;;;;5093561;28;20556;-81
2023/04/12 03:22:33;;;;;;;4.70;2.70;;;17.90;50.40;;;;;;5092154;28;20441;-83
2023/04/12 03:25:03;;;;;;;3.90;2.90;;;17.90;50.40;;;;;;5104668;28;20463;-80
2023/04/12 03:27:33;;;;;;;3.47;2.43;;;17.80;50.20;;;;;;5101596;28;20536;-82
2023/04/12 03:30:02;;;;;;;4.00;2.70;;;17.80;50.30;;;;;;5104627;28;20472;-83
2023/04/12 03:32:31;;;;;;;4.40;2.60;;;17.80;50.30;;;;;;5109189;28;20445;-82
2023/04/12 03:34:59;;;;;;;5.43;2.67;;;17.80;50.30;;;;;;5097691;28;20544;-83
2023/04/12 03:37:27;;;;;;;2.70;2.50;;;17.80;50.40;;;;;;5093681;28;20469;-81
2023/04/12 03:39:55;;;;;;;3.83;2.67;;;17.80;50.40;;;;;;5092747;28;20457;-80
2023/04/12 03:42:22;;;;;;;3.20;2.90;;;17.80;50.40;;;;;;5097583;28;20554;-82
2023/04/12 03:45:02;;;;;;;6.17;3.10;;;17.80;50.20;;;;;;5097561;28;20470;-82
2023/04/12 03:47:30;;;;;;;3.50;2.60;;;17.80;50.20;;;;;;5097367;28;20476;-81
2023/04/12 03:50:05;;;;;;;4.37;2.70;;;17.70;50.20;;;;;;5096587;28;20456;-81
2023/04/12 03:52:39;;;;;;;3.27;2.33;;;17.70;50.10;;;;;;5104885;28;20452;-82
2023/04/12 03:55:07;;;;;;;2.63;2.43;;;17.70;50.10;;;;;;5089570;28;20465;-81
2023/04/12 03:57:35;;;;;;;3.87;2.70;;;17.70;50.20;;;;;;5093215;28;20575;-83
2023/04/12 04:00:07;;;;;;;5.07;2.53;;;17.70;50.00;;;;;;5094589;28;21049;-80
2023/04/12 04:02:35;;;;;;;4.87;2.87;;;17.70;50.70;;;;;;5095314;28;20479;-81
2023/04/12 04:05:04;;;;;;;2.80;2.20;;;17.70;50.00;;;;;;5097515;28;20451;-82
2023/04/12 04:07:32;;;;;;;4.17;2.30;;;17.70;50.00;;;;;;5095205;28;20483;-81
2023/04/12 04:10:00;;;;;;;5.07;2.53;;;17.70;50.10;;;;;;5082375;28;20461;-81
2023/04/12 04:12:28;;;;;;;7.30;2.67;;;17.60;49.90;;;;;;5089911;28;20449;-82
2023/04/12 04:14:56;;;;;;;2.90;2.00;;;17.60;49.80;;;;;;5096050;28;20455;-83
2023/04/12 04:17:26;;;;;;;3.50;2.23;;;17.60;49.80;;;;;;5095074;28;20480;-81
2023/04/12 04:19:54;;;;;;;2.90;2.40;;;17.60;49.80;;;;;;5092040;28;20465;-81
2023/04/12 04:22:22;;;;;;;4.67;2.53;;;17.60;49.80;;;;;;5095595;28;20448;-81
2023/04/12 04:24:50;;;;;;;3.93;2.30;;;17.60;49.90;;;;;;5101773;28;20437;-81
2023/04/12 04:27:19;;;;;;;4.57;2.97;;;17.60;49.80;;;;;;5095425;28;20453;-82
2023/04/12 04:29:47;;;;;;;4.83;2.53;;;17.60;49.70;;;;;;5095202;28;20470;-82
2023/04/12 04:32:15;;;;;;;3.47;2.37;;;17.60;50.20;;;;;;5097585;28;20478;-81
2023/04/12 04:34:44;;;;;;;2.47;2.27;;;17.60;49.60;;;;;;5088487;28;20452;-82
2023/04/12 04:37:12;;;;;;;3.30;2.63;;;17.60;49.50;;;;;;5083808;28;20469;-82
2023/04/12 04:39:40;;;;;;;3.30;2.30;;;17.50;49.40;;;;;;5097363;28;20960;-82
2023/04/12 04:42:08;;;;;;;3.60;2.63;;;17.60;49.40;;;;;;5097413;28;21024;-82
2023/04/12 04:44:38;;;;;;;4.40;2.37;;;17.60;49.40;;;;;;5093314;28;20459;-82
2023/04/12 04:47:07;;;;;;;3.40;2.47;;;17.60;49.20;;;;;;5084658;28;20452;-82
2023/04/12 04:49:35;;;;;;;3.23;2.10;;;17.60;49.10;;;;;;5087423;28;20465;-81
2023/04/12 04:52:07;;;;;;;4.90;2.30;;;17.60;49.20;;;;;;5085090;28;20433;-81
2023/04/12 04:54:35;;;;;;;2.60;2.40;;;17.60;49.10;;;;;;5091657;28;20433;-82
2023/04/12 04:57:10;;;;;;;6.43;2.50;;;17.60;49.00;;;;;;5086872;28;20475;-81
2023/04/12 04:59:38;;;;;;;3.13;2.17;;;17.60;48.90;;;;;;5094351;28;20476;-81
2023/04/12 05:02:06;;;;;;;4.30;2.00;;;17.60;48.80;;;;;;5093851;28;20437;-81
2023/04/12 05:04:34;;;;;;;4.90;2.43;;;17.60;48.70;;;;;;5093528;28;20445;-82
2023/04/12 05:07:03;;;;;;;4.80;2.70;;;17.60;48.80;;;;;;5096215;28;20531;-81
2023/04/12 05:09:33;;;;;;;4.17;2.13;;;17.60;48.70;;;;;;5095482;28;20468;-80
2023/04/12 05:12:01;;;;;;;2.30;2.10;;;17.60;48.70;;;;;;5090457;28;20449;-80
2023/04/12 05:14:29;;;;;;;4.60;2.40;;;17.60;48.70;;;;;;5091168;28;20453;-81
2023/04/12 05:17:12;;;;;;;5.20;2.13;;;17.60;48.60;;;;;;5094211;28;20469;-81
2023/04/12 05:19:42;;;;;;;4.20;2.47;;;17.60;48.60;;;;;;5090546;28;20473;-81
2023/04/12 05:22:11;;;;;;;2.60;2.40;;;17.60;48.60;;;;;;5083371;28;20525;-81
2023/04/12 05:24:41;;;;;;;4.90;2.50;;;17.60;48.40;;;;;;5096781;28;20472;-81
2023/04/12 05:27:09;;;;;;;5.10;2.17;;;17.70;48.40;;;;;;5098921;28;20453;-81
2023/04/12 05:29:37;;;;;;;3.90;2.50;;;17.70;48.30;;;;;;5086447;28;20472;-81
2023/04/12 05:32:05;;;;;;;2.50;2.07;;;17.60;48.00;;;;;;5093077;28;20455;-82
2023/04/12 05:34:33;;;;;;;5.73;2.40;;;17.70;48.10;;;;;;5094565;28;20440;-82
2023/04/12 05:37:01;;;;;;;3.10;1.80;;;17.70;48.00;;;;;;5095064;28;20447;-82
2023/04/12 05:39:29;;;;;;;4.00;2.33;;;17.70;47.90;;;;;;5094884;28;20473;-83
2023/04/12 05:41:59;;;;;;;5.30;2.40;;;17.70;47.90;;;;;;5093844;28;20441;-82
2023/04/12 05:44:27;;;;;;;4.80;2.07;;;17.70;47.80;;;;;;5097690;28;20447;-81
2023/04/12 05:46:55;;;;;;;5.77;2.30;;;17.70;47.70;;;;;;5097016;28;20444;-82
2023/04/12 05:49:23;;;;;;;4.30;2.13;;;17.70;47.80;;;;;;5097523;28;20555;-82
2023/04/12 05:51:51;;;;;;;3.20;2.10;;;17.70;47.50;;;;;;5097340;28;20447;-82
2023/04/12 05:54:20;;;;;;;3.40;2.00;;;17.70;47.50;;;;;;5096779;28;20441;-82
2023/04/12 05:56:48;;;;;;;5.00;2.20;;;17.80;47.70;;;;;;5085685;28;20464;-81
2023/04/12 05:59:18;;;;;;;4.47;2.10;;;17.80;47.50;;;;;;5089805;28;20472;-82
2023/04/12 06:01:46;;;;;;;3.33;2.10;;;17.80;47.50;;;;;;5090108;28;20580;-82
2023/04/12 06:04:15;;;;;;;4.00;2.00;;;17.80;47.60;;;;;;5088687;28;20450;-81
2023/04/12 06:06:43;;;;;;;4.67;2.27;;;17.80;47.40;;;;;;5090211;28;20464;-84
2023/04/12 06:09:11;;;;;;;3.20;2.30;;;17.80;47.40;;;;;;5081521;28;20960;-83
2023/04/12 06:11:39;;;;;;;3.47;2.10;;;17.80;47.20;;;;;;5091064;28;20453;-81
2023/04/12 06:14:08;;;;;;;3.70;2.07;;;17.80;47.20;;;;;;5089272;28;20437;-84
2023/04/12 06:16:40;;;;;;;3.17;2.20;;;17.90;47.30;;;;;;5093554;28;20457;-80
2023/04/12 06:19:09;;;;;;;2.90;2.50;;;17.80;47.00;;;;;;5092606;28;20543;-81
2023/04/12 06:21:38;;;;;;;6.30;2.10;;;17.90;47.20;;;;;;5091846;28;20536;-81
2023/04/12 06:24:08;;;;;;;3.10;1.90;;;17.90;47.10;;;;;;5094446;28;20443;-81
2023/04/12 06:26:36;;;;;;;2.80;2.17;;;17.90;47.10;;;;;;5092498;28;20923;-82
2023/04/12 06:29:07;;;;;;;7.13;2.33;;;18.00;47.00;;;;;;5092309;28;20472;-82
2023/04/12 06:31:35;;;;;;;4.60;2.20;;;18.00;46.90;;;;;;5090059;28;20508;-82
2023/04/12 06:34:04;;;;;;;6.47;2.17;;;18.00;47.00;;;;;;5092559;28;20448;-82
2023/04/12 06:36:32;;;;;;;2.93;1.77;;;18.00;46.80;;;;;;5092852;28;20436;-82
2023/04/12 06:39:00;;;;;;;3.10;1.93;;;18.00;46.80;;;;;;5081057;28;20484;-83
2023/04/12 06:41:28;;;;;;;4.20;2.40;;;18.00;46.80;;;;;;5091812;28;20527;-79
2023/04/12 06:43:56;;;;;;;4.50;1.80;;;18.10;46.80;;;;;;5091703;28;20445;-83
2023/04/12 06:46:27;;;;;;;3.77;2.13;;;18.10;46.80;;;;;;5089256;28;20471;-82
2023/04/12 06:48:55;;;;;;;8.77;2.40;;;18.20;46.70;;;;;;5086098;28;20471;-85
2023/04/12 06:51:26;;;;;;;5.63;2.30;;;18.10;46.50;;;;;;5093678;28;20452;-84
2023/04/12 06:53:56;;;;;;;7.03;2.30;;;18.20;46.40;;;;;;5080789;28;20455;-85
2023/04/12 06:56:24;;;;;;;6.40;2.07;;;18.10;46.30;;;;;;5094692;28;20456;-84
2023/04/12 06:58:52;;;;;;;2.90;1.53;;;18.20;46.30;;;;;;5088788;28;20481;-84
2023/04/12 07:01:20;;;;;;;7.67;1.93;;;18.20;46.20;;;;;;5095554;28;20444;-84
2023/04/12 07:03:48;;;;;;;5.60;2.13;;;18.20;46.10;;;;;;5095646;28;20508;-84
2023/04/12 07:06:16;;;;;;;1.97;1.70;;;18.30;46.10;;;;;;5102939;28;20445;-85
2023/04/12 07:08:53;;;;;;;4.27;1.70;;;18.30;46.00;;;;;;5090588;28;20476;-84
2023/04/12 07:11:22;;;;;;;7.50;1.87;;;18.30;45.90;;;;;;5096796;28;20521;-84
2023/04/12 07:13:50;;;;;;;4.50;1.90;;;18.30;45.70;;;;;;5097494;28;20444;-84
2023/04/12 07:16:18;;;;;;;7.10;1.93;;;18.30;45.80;;;;;;5099782;28;20441;-84
2023/04/12 07:18:47;;;;;;;3.60;1.73;;;18.30;45.70;;;;;;5093934;28;20487;-85
2023/04/12 07:21:16;;;;;;;3.10;1.63;;;18.40;45.60;;;;;;5089863;28;20539;-84
2023/04/12 07:23:49;;;;;;;5.83;1.97;;;18.40;45.60;;;;;;5086948;28;20861;-83
2023/04/12 07:26:20;;;;;;;2.90;1.57;;;18.40;45.50;;;;;;5094805;28;20574;-84
2023/04/12 07:28:48;;;;;;;2.40;1.63;;;18.50;45.60;;;;;;5095999;28;20456;-84
2023/04/12 07:31:16;;;;;;;4.90;1.90;;;18.50;45.30;;;;;;5089138;28;20441;-85
2023/04/12 07:33:44;;;;;;;5.27;1.60;;;18.60;45.40;;;;;;5091086;28;20485;-84
2023/04/12 07:36:15;;;;;;;3.47;2.27;;;18.60;45.10;;;;;;5090509;28;20451;-84
2023/04/12 07:38:42;;;;;;;3.97;1.80;;;18.60;45.00;;;;;;5095187;28;20480;-83
2023/04/12 07:41:10;;;;;;;3.97;2.13;;;18.60;44.90;;;;;;5097617;28;20437;-84
2023/04/12 07:43:39;;;;;;;7.47;2.33;;;18.60;44.90;;;;;;5082937;28;20456;-82
2023/04/12 07:46:07;;;;;;;4.37;1.90;;;18.60;44.80;;;;;;5095733;28;20478;-82
2023/04/12 07:48:36;;;;;;;3.60;2.00;;;18.70;44.80;;;;;;5087620;28;20469;-81
2023/04/12 07:51:04;;;;;;;3.07;1.70;;;18.70;44.70;;;;;;5094587;28;20459;-82
2023/04/12 07:53:32;;;;;;;5.63;2.17;;;18.70;44.50;;;;;;5099802;28;20448;-82
2023/04/12 07:56:02;;;;;;;3.10;1.60;;;18.70;44.50;;;;;;5098261;28;20453;-82
2023/04/12 07:58:30;;;;;;;3.00;1.77;;;18.70;44.50;;;;;;5102037;28;20496;-82
2023/04/12 08:01:00;;;;;;;3.50;1.43;;;18.70;44.50;;;;;;5101545;28;20549;-82
2023/04/12 08:03:28;;;;;;;4.20;1.70;;;18.70;44.40;;;;;;5087437;28;20453;-82
2023/04/12 08:05:56;;;;;;;3.83;1.63;;;18.70;44.50;;;;;;5087828;28;20452;-82
2023/04/12 08:08:24;;;;;;;6.00;2.30;;;18.70;44.50;;;;;;5089636;28;20503;-82
2023/04/12 08:10:52;;;;;;;2.60;1.67;;;18.70;44.50;;;;;;5082987;28;20445;-81
2023/04/12 08:13:21;;;;;;;1.90;1.80;;;18.70;44.50;;;;;;5082851;28;20480;-81
2023/04/12 08:15:48;;;;;;;3.27;2.03;;;18.70;44.40;;;;;;5079597;28;20438;-83
2023/04/12 08:18:18;;;;;;;3.90;1.60;;;18.60;44.30;;;;;;5089636;28;20449;-81
2023/04/12 08:20:48;;;;;;;2.87;1.50;;;18.70;44.50;;;;;;5093098;28;20468;-83
2023/04/12 08:23:16;;;;;;;2.83;1.60;;;18.70;44.40;;;;;;5101492;28;20457;-83
2023/04/12 08:25:44;;;;;;;3.43;1.70;;;18.60;44.50;;;;;;5098749;28;20498;-83
2023/04/12 08:28:12;;;;;;;1.83;1.60;;;18.70;44.70;;;;;;5089228;28;20494;-83
2023/04/12 08:30:40;;;;;;;1.93;1.50;;;18.70;44.70;;;;;;5093135;28;20998;-83
2023/04/12 08:33:08;;;;;;;3.17;1.67;;;18.70;44.80;;;;;;5094898;28;20463;-84
2023/04/12 08:35:38;;;;;;;2.07;1.30;;;18.70;44.90;;;;;;5096286;28;20467;-83
2023/04/12 08:38:06;;;;;;;5.00;2.00;;;18.70;44.90;;;;;;5090402;28;20438;-78
2023/04/12 08:40:35;;;;;;;4.60;1.70;;;18.70;45.10;;;;;;5081612;28;20519;-83
2023/04/12 08:43:03;;;;;;;2.00;1.80;;;18.70;45.30;;;;;;5115579;28;20441;-84
2023/04/12 08:45:31;;;;;;;5.10;1.93;;;18.70;45.20;;;;;;5114053;28;20433;-85
2023/04/12 08:48:00;;;;;;;4.50;1.97;;;18.70;45.40;;;;;;5112428;28;20419;-88
2023/04/12 08:50:28;;;;;;;8.03;2.60;;;18.70;45.70;;;;;;5112245;28;20532;-85
2023/04/12 08:52:58;;;;;;;2.43;2.20;;;18.70;45.60;;;;;;5117148;28;20437;-86
2023/04/12 08:55:26;;;;;;;3.83;2.33;;;18.60;45.80;;;;;;5118434;28;20512;-85
2023/04/12 08:57:55;;;;;;;6.07;2.50;;;18.60;45.90;;;;;;5117897;28;20472;-84
2023/04/12 09:00:23;;;;;;;6.10;2.20;;;18.70;46.20;;;;;;5111059;28;20484;-80
2023/04/12 09:02:51;;;;;;;3.70;2.80;;;18.70;46.80;;;;;;5118434;28;20440;-80
2023/04/12 09:05:19;;;;;;;4.70;2.50;;;18.70;46.20;;;;;;5105191;28;20440;-80
2023/04/12 09:07:47;;;;;;;7.17;3.03;;;18.70;46.30;;;;;;5107077;28;20428;-77
2023/04/12 09:10:30;;;;;;;5.17;2.90;;;18.80;46.60;;;;;;5089165;28;20475;-78
2023/04/12 09:12:57;;;;;;;4.90;2.73;;;18.80;46.30;;;;;;5092950;28;20467;-77
2023/04/12 09:15:25;;;;;;;2.93;2.73;;;18.80;46.50;;;;;;5086472;28;20521;-77
2023/04/12 09:18:04;;;;;;;6.40;2.57;;;18.80;46.20;;;;;;5090629;28;20472;-77
2023/04/12 09:20:32;;;;;;;3.43;2.60;;;18.80;46.20;;;;;;5083306;28;20528;-77
2023/04/12 09:23:01;;;;;;;3.50;2.80;;;18.80;46.40;;;;;;5087470;28;20448;-78
2023/04/12 09:25:43;;;;;;;5.20;3.30;;;18.80;46.40;;;;;;5079900;28;20445;-78
2023/04/12 09:28:24;;;;;;;3.60;3.30;;;18.80;46.40;;;;;;5084987;28;20449;-78
2023/04/12 09:30:52;;;;;;;3.37;3.07;;;18.80;46.50;;;;;;5089503;28;20438;-77
2023/04/12 09:33:21;;;;;;;3.10;2.90;;;18.80;46.50;;;;;;5090868;28;20503;-78
2023/04/12 09:35:49;;;;;;;5.07;3.50;;;18.80;46.60;;;;;;5090686;28;20433;-78
2023/04/12 09:38:17;;;;;;;4.23;3.30;;;18.80;47.20;;;;;;5083397;28;20425;-77
2023/04/12 09:40:46;;;;;;;6.43;3.37;;;18.80;46.70;;;;;;5093710;28;20530;-79
2023/04/12 09:43:14;;;;;;;5.63;3.03;;;18.80;46.50;;;;;;5092614;28;20448;-80
2023/04/12 09:45:42;;;;;;;5.10;3.73;;;18.90;46.60;;;;;;5095906;28;20441;-81
2023/04/12 09:48:19;;;;;;;7.40;3.00;;;18.90;46.70;;;;;;5091296;28;20889;-81
2023/04/12 09:50:46;;;;;;;5.30;2.70;;;19.00;46.80;;;;;;5095380;28;20508;-83
2023/04/12 09:53:16;;;;;;;5.90;3.30;;;19.00;46.70;;;;;;5099995;28;20448;-85
2023/04/12 09:55:46;;;;;;;5.03;3.20;;;19.00;46.60;;;;;;5101535;28;20512;-84
2023/04/12 09:58:14;;;;;;;3.47;2.90;;;19.10;46.70;;;;;;5092620;28;20457;-83
2023/04/12 10:00:42;;;;;;;7.87;3.13;;;19.10;46.70;;;;;;5093722;28;20473;-80
2023/04/12 10:03:12;;;;;;;3.23;2.97;;;19.10;46.70;;;;;;5094372;28;20452;-78
2023/04/12 10:05:44;;;;;;;5.97;3.10;;;19.10;46.70;;;;;;5092217;28;20888;-82
2023/04/12 10:08:14;;;;;;;5.43;2.80;;;19.20;46.70;;;;;;5088328;28;20461;-79
2023/04/12 10:10:43;;;;;;;3.00;2.70;;;19.20;46.70;;;;;;5090290;28;20474;-79
2023/04/12 10:13:12;;;;;;;3.97;2.63;;;19.10;46.80;;;;;;5090294;28;20484;-80
2023/04/12 10:15:40;;;;;;;3.03;2.80;;;19.10;46.80;;;;;;5090743;28;20445;-81
2023/04/12 10:18:08;;;;;;;3.10;2.63;;;19.10;46.80;;;;;;5093605;28;20476;-81
2023/04/12 10:20:36;;;;;;;3.20;2.83;;;19.10;47.00;;;;;;5092348;28;20460;-82
2023/04/12 10:23:05;;;;;;;4.50;2.60;;;19.10;46.90;;;;;;5085634;28;20445;-81
2023/04/12 10:25:36;;;;;;;2.73;2.37;;;19.10;47.10;;;;;;5090308;28;20464;-83
2023/04/12 10:28:15;;;;;;;5.27;2.80;;;19.10;47.10;;;;;;5091044;28;20456;-82
2023/04/12 10:30:43;;;;;;;3.67;2.63;;;19.00;47.00;;;;;;5091219;28;20436;-83
2023/04/12 10:33:12;;;;;;;3.67;2.63;;;19.00;47.10;;;;;;5093043;28;20466;-82
2023/04/12 10:35:55;;;;;;;3.63;2.50;;;19.00;47.40;;;;;;5084980;28;20437;-81
2023/04/12 10:38:25;;;;;;;2.93;2.73;;;19.00;47.30;;;;;;5083285;28;20467;-80
2023/04/12 10:41:12;;;;;;;2.90;2.50;;;19.00;47.40;;;;;;5090226;28;20556;-79
2023/04/12 10:43:41;;;;;;;3.57;2.43;;;19.00;47.40;;;;;;5088485;28;20478;-80
2023/04/12 10:46:24;;;;;;;4.50;2.50;;;19.00;47.40;;;;;;5084138;28;20445;-80
2023/04/12 10:48:52;;;;;;;4.70;2.30;;;19.00;47.60;;;;;;5091285;28;20464;-80
2023/04/12 10:51:24;;;;;;;3.83;2.60;;;19.00;47.70;;;;;;5090141;28;20449;-81
2023/04/12 10:53:52;;;;;;;8.30;3.00;;;19.00;47.60;;;;;;5088360;28;20476;-81
2023/04/12 10:56:36;;;;;;;2.50;2.30;;;19.00;47.60;;;;;;5091953;28;20452;-80
2023/04/12 10:59:05;;;;;;;3.67;2.57;;;19.00;47.70;;;;;;5094064;28;20479;-79
2023/04/12 11:01:33;;;;;;;4.87;2.20;;;19.00;47.70;;;;;;5096842;28;20480;-80
2023/04/12 11:04:06;;;;;;;2.80;2.60;;;19.00;47.70;;;;;;5091664;28;20490;-81
2023/04/12 11:06:55;;;;;;;5.30;2.90;;;19.00;47.80;;;;;;5075951;28;20884;-80
2023/04/12 11:09:26;;;;;;;3.20;2.50;;;19.10;47.80;;;;;;5083627;28;20535;-80
2023/04/12 11:11:59;;;;;;;2.60;2.40;;;19.00;47.70;;;;;;5087819;28;20428;-78
2023/04/12 11:14:34;;;;;;;3.13;2.57;;;19.10;47.90;;;;;;5086073;28;20945;-80
2023/04/12 11:17:21;;;;;;;3.27;2.27;;;19.00;47.80;;;;;;5086234;28;20488;-80
2023/04/12 11:19:52;;;;;;;3.90;2.50;;;19.00;47.90;;;;;;5087580;28;20460;-80
2023/04/12 11:22:24;;;;;;;2.33;2.13;;;19.00;48.10;;;;;;5085163;28;20477;-81
2023/04/12 11:24:53;;;;;;;2.60;2.40;;;19.10;48.10;;;;;;5083814;28;20595;-80
2023/04/12 11:27:22;;;;;;;2.73;2.53;;;19.10;48.20;;;;;;5089618;28;20463;-80
2023/04/12 11:29:53;;;;;;;5.20;2.80;;;19.10;48.00;;;;;;5091015;28;20540;-83
2023/04/12 11:32:21;;;;;;;3.40;2.30;;;19.10;48.10;;;;;;5083068;28;20512;-81
2023/04/12 11:34:50;;;;;;;2.53;2.33;;;19.20;48.20;;;;;;5086985;28;20480;-79
2023/04/12 11:37:21;;;;;;;2.83;2.63;;;19.30;48.20;;;;;;5090771;28;20455;-80
2023/04/12 11:39:52;;;;;;;2.80;2.60;;;19.30;48.20;;;;;;5088056;28;20476;-82
2023/04/12 11:42:22;;;;;;;2.70;2.50;;;19.40;48.00;;;;;;5092112;28;20477;-80
2023/04/12 11:44:51;;;;;;;2.47;2.27;;;19.50;48.00;;;;;;5090133;28;20444;-81
2023/04/12 11:47:28;;;;;;;2.30;2.10;;;19.60;48.50;;;;;;5088590;28;20444;-81
2023/04/12 11:49:58;;;;;;;2.63;2.53;;;19.70;47.90;;;;;;5091473;28;20469;-80
2023/04/12 11:52:28;;;;;;;2.60;2.40;;;19.80;47.80;;;;;;5090894;28;20448;-81
2023/04/12 11:54:58;;;;;;;2.80;2.60;;;19.80;47.60;;;;;;5083522;28;20445;-81
2023/04/12 11:57:27;;;;;;;2.80;2.60;;;19.80;47.70;;;;;;5089323;28;20448;-85
2023/04/12 11:59:57;;;;;;;2.13;2.03;;;19.70;47.90;;;;;;5085862;28;20503;-78
2023/04/12 12:02:28;;;;;;;2.17;2.07;;;19.80;47.80;;;;;;5094614;28;20472;-81
2023/04/12 12:05:03;;;;;;;2.50;2.40;;;19.80;47.90;;;;;;5088799;28;20432;-80
2023/04/12 12:07:32;;;;;;;2.83;2.47;;;19.70;47.90;;;;;;5091075;28;20928;-80
2023/04/12 12:10:00;;;;;;;2.10;2.00;;;19.80;47.90;;;;;;5092649;28;20466;-81
2023/04/12 12:12:28;;;;;;;1.90;1.80;;;19.70;48.00;;;;;;5094797;28;20448;-81
2023/04/12 12:15:00;;;;;;;2.13;2.03;;;19.80;48.20;;;;;;5097070;28;20444;-79
2023/04/12 12:17:29;;;;;;;2.13;1.67;;;19.80;48.30;;;;;;5091008;28;20449;-79
2023/04/12 12:19:57;;;;;;;2.20;2.10;;;19.80;48.30;;;;;;5091244;28;20484;-80
2023/04/12 12:22:25;;;;;;;2.60;2.30;;;19.90;48.80;;;;;;5091941;28;20475;-80
2023/04/12 12:24:55;;;;;;;5.60;2.47;;;19.90;48.80;;;;;;5088392;28;20456;-77
2023/04/12 12:27:24;;;;;;;2.13;2.00;;;20.00;48.80;;;;;;5090030;28;20493;-78
2023/04/12 12:29:54;;;;;;;3.17;2.23;;;19.90;48.80;;;;;;5093057;28;20472;-79
2023/04/12 12:32:24;;;;;;;3.70;2.20;;;19.90;48.90;;;;;;5091672;28;20445;-80
2023/04/12 12:34:54;;;;;;;2.00;1.90;;;19.90;48.90;;;;;;5094922;28;20482;-81
2023/04/12 12:37:24;;;;;;;2.40;2.30;;;19.90;49.00;;;;;;5095039;28;20528;-78
2023/04/12 12:40:06;;;;;;;4.50;2.27;;;19.90;49.10;;;;;;5094385;28;21007;-79
2023/04/12 12:42:34;;;;;;;2.37;2.10;;;19.80;49.00;;;;;;5090499;28;20468;-80
2023/04/12 12:45:03;;;;;;;3.80;2.30;;;19.80;49.20;;;;;;5089775;28;20544;-79
2023/04/12 12:47:33;;;;;;;2.50;1.60;;;19.80;49.30;;;;;;5091209;28;20449;-80
2023/04/12 12:50:01;;;;;;;2.13;2.03;;;19.80;49.30;;;;;;5086155;28;20552;-80
2023/04/12 12:52:29;;;;;;;3.73;2.40;;;19.80;49.40;;;;;;5087005;28;20454;-80
2023/04/12 12:54:57;;;;;;;5.70;2.50;;;19.90;49.50;;;;;;5091999;28;20448;-80
2023/04/12 12:57:26;;;;;;;3.00;2.80;;;19.90;49.60;;;;;;5084203;28;20463;-80